createdAt,value
2023-03-29T00:00:15.776Z,99006.22
2023-03-29T00:05:39.054Z,98999.03
2023-03-29T00:11:01.140Z,99004.09
2023-03-29T00:16:23.126Z,98993.63
2023-03-29T00:21:44.898Z,98982.97
2023-03-29T00:27:06.998Z,98972.44
2023-03-29T00:32:28.993Z,98974.88
2023-03-29T00:37:50.986Z,98965.28
2023-03-29T00:43:14.733Z,98959.91
2023-03-29T00:48:36.542Z,98960.22
2023-03-29T00:54:01.651Z,98956.69
2023-03-29T00:59:25.734Z,98956.03
2023-03-29T01:05:05.860Z,98948.88
2023-03-29T01:10:36.135Z,98944.97
2023-03-29T01:15:59.058Z,98930.81
2023-03-29T01:21:29.225Z,98917.63
2023-03-29T01:27:00.514Z,98912.03
2023-03-29T01:32:39.253Z,98910.91
2023-03-29T01:38:23.376Z,98886.91
2023-03-29T01:44:02.119Z,98892.69
2023-03-29T01:49:28.793Z,98878.63
2023-03-29T01:55:00.908Z,98870.03
2023-03-29T02:00:27.422Z,98849.38
2023-03-29T02:05:49.360Z,98839.00
2023-03-29T02:11:11.242Z,98827.91
2023-03-29T02:16:37.576Z,98821.31
2023-03-29T02:22:07.092Z,98823.72
2023-03-29T02:27:29.891Z,98827.34
2023-03-29T02:33:05.022Z,98824.38
2023-03-29T02:38:27.927Z,98823.16
2023-03-29T02:43:50.640Z,98818.69
2023-03-29T02:49:12.912Z,98805.28
2023-03-29T02:54:37.871Z,98780.63
2023-03-29T03:00:00.968Z,98775.72
2023-03-29T03:05:23.811Z,98747.00
2023-03-29T03:10:46.699Z,98750.84
2023-03-29T03:16:09.354Z,98751.59
2023-03-29T03:21:31.107Z,98762.84
2023-03-29T03:26:52.875Z,98763.06
2023-03-29T03:32:14.623Z,98758.63
2023-03-29T03:37:36.301Z,98759.72
2023-03-29T03:42:58.222Z,98754.97
2023-03-29T03:48:20.332Z,98750.47
2023-03-29T03:53:42.287Z,98751.06
2023-03-29T03:59:04.674Z,98761.19
2023-03-29T04:04:26.706Z,98759.31
2023-03-29T04:09:48.792Z,98774.66
2023-03-29T04:15:11.983Z,98768.28
2023-03-29T04:20:34.075Z,98763.69
2023-03-29T04:25:59.313Z,98757.91
2023-03-29T04:31:21.078Z,98760.69
2023-03-29T04:36:43.714Z,98760.53
2023-03-29T04:42:05.906Z,98766.72
2023-03-29T04:47:31.229Z,98772.22
2023-03-29T04:52:52.950Z,98767.72
2023-03-29T04:58:15.005Z,98761.91
2023-03-29T05:03:36.688Z,98759.03
2023-03-29T05:08:58.373Z,98755.03
2023-03-29T05:14:20.565Z,98757.59
2023-03-29T05:19:43.599Z,98756.72
2023-03-29T05:25:05.978Z,98769.53
2023-03-29T05:30:27.725Z,98762.47
2023-03-29T05:35:49.441Z,98766.59
2023-03-29T05:41:11.372Z,98764.31
2023-03-29T05:46:33.108Z,98756.50
2023-03-29T05:51:56.845Z,98762.22
2023-03-29T05:57:18.787Z,98762.59
2023-03-29T06:02:41.843Z,98755.84
2023-03-29T06:08:03.701Z,98760.06
2023-03-29T06:13:26.156Z,98766.75
2023-03-29T06:18:47.904Z,98765.69
2023-03-29T06:24:09.639Z,98769.38
2023-03-29T06:29:31.584Z,98768.38
2023-03-29T06:34:54.320Z,98773.38
2023-03-29T06:40:21.190Z,98768.03
2023-03-29T06:45:43.621Z,98771.84
2023-03-29T06:51:07.507Z,98780.06
2023-03-29T06:56:29.840Z,98790.44
2023-03-29T07:01:53.875Z,98796.78
2023-03-29T07:07:22.142Z,98808.38
2023-03-29T07:12:46.116Z,98802.41
2023-03-29T07:18:12.579Z,98807.22
2023-03-29T07:23:34.793Z,98814.63
2023-03-29T07:28:56.500Z,98808.94
2023-03-29T07:34:18.240Z,98812.91
2023-03-29T07:39:40.290Z,98819.69
2023-03-29T07:45:04.048Z,98822.03
2023-03-29T07:50:27.272Z,98826.97
2023-03-29T07:55:50.029Z,98830.16
2023-03-29T08:01:17.997Z,98838.00
2023-03-29T08:06:41.209Z,98829.59
2023-03-29T08:12:02.981Z,98833.50
2023-03-29T08:17:24.742Z,98819.94
2023-03-29T08:22:46.568Z,98823.25
2023-03-29T08:28:08.577Z,98826.84
2023-03-29T08:33:30.253Z,98821.38
2023-03-29T08:38:52.020Z,98820.22
2023-03-29T08:44:32.757Z,98815.75
2023-03-29T08:49:56.401Z,98819.19
2023-03-29T08:55:29.405Z,98820.97
2023-03-29T09:00:59.703Z,98812.59
2023-03-29T09:06:21.971Z,98807.63
2023-03-29T09:12:11.876Z,98809.78
2023-03-29T09:17:41.697Z,98799.63
2023-03-29T09:23:30.273Z,98798.28
2023-03-29T09:29:06.134Z,98804.56
2023-03-29T09:34:34.707Z,98796.44
2023-03-29T09:39:57.586Z,98778.41
2023-03-29T09:45:19.453Z,98773.19
2023-03-29T09:50:46.445Z,98775.53
2023-03-29T09:56:08.589Z,98755.97
2023-03-29T10:01:39.815Z,98764.50
2023-03-29T10:07:01.669Z,98765.38
2023-03-29T10:12:23.394Z,98757.88
2023-03-29T10:17:46.154Z,98751.69
2023-03-29T10:23:17.214Z,98754.06
2023-03-29T10:28:39.906Z,98749.19
2023-03-29T10:34:04.958Z,98748.91
2023-03-29T10:39:32.753Z,98736.16
2023-03-29T10:44:59.470Z,98732.72
2023-03-29T10:50:21.221Z,98711.72
2023-03-29T10:55:49.157Z,98706.72
2023-03-29T11:01:22.042Z,98708.97
2023-03-29T11:06:53.797Z,98709.28
2023-03-29T11:12:38.949Z,98706.22
2023-03-29T11:18:25.131Z,98691.81
2023-03-29T11:24:04.917Z,98681.75
2023-03-29T11:29:38.476Z,98671.94
2023-03-29T11:35:18.493Z,98674.72
2023-03-29T11:40:55.399Z,98673.00
2023-03-29T11:46:23.607Z,98678.69
2023-03-29T11:51:54.281Z,98670.28
2023-03-29T11:57:39.868Z,98662.00
2023-03-29T12:03:19.703Z,98650.47
2023-03-29T12:08:48.263Z,98634.53
2023-03-29T12:14:46.839Z,98619.78
2023-03-29T12:20:28.274Z,98634.22
2023-03-29T12:26:03.664Z,98639.13
2023-03-29T12:31:47.869Z,98648.06
2023-03-29T12:37:21.999Z,98633.50
2023-03-29T12:42:59.688Z,98634.50
2023-03-29T12:48:28.478Z,98657.19
2023-03-29T12:54:00.457Z,98662.78
2023-03-29T12:59:52.266Z,98670.19
2023-03-29T13:05:29.549Z,98663.38
2023-03-29T13:10:56.234Z,98671.47
2023-03-29T13:16:21.774Z,98668.47
2023-03-29T13:22:04.676Z,98668.66
2023-03-29T13:27:56.189Z,98660.78
2023-03-29T13:34:09.759Z,98675.38
2023-03-29T13:39:36.773Z,98666.53
2023-03-29T13:45:26.172Z,98672.13
2023-03-29T13:50:55.583Z,98703.31
2023-03-29T13:56:24.683Z,98685.66
2023-03-29T14:01:57.826Z,98699.13
2023-03-29T14:07:26.143Z,98691.28
2023-03-29T14:12:48.603Z,98685.72
2023-03-29T14:18:12.525Z,98678.47
2023-03-29T14:23:37.108Z,98675.13
2023-03-29T14:29:02.587Z,98662.59
2023-03-29T14:34:24.342Z,98655.66
2023-03-29T14:39:46.255Z,98654.09
2023-03-29T14:45:14.108Z,98650.09
2023-03-29T14:50:36.435Z,98637.69
2023-03-29T14:55:58.603Z,98630.56
2023-03-29T15:01:23.480Z,98624.06
2023-03-29T15:06:46.895Z,98614.63
2023-03-29T15:12:16.098Z,98606.19
2023-03-29T15:17:50.521Z,98591.56
2023-03-29T15:23:16.750Z,98587.06
2023-03-29T15:28:48.180Z,98570.97
2023-03-29T15:34:12.978Z,98559.06
2023-03-29T15:39:35.130Z,98567.50
2023-03-29T15:44:56.841Z,98558.22
2023-03-29T15:50:18.857Z,98549.59
2023-03-29T15:55:44.580Z,98545.78
2023-03-29T16:01:11.980Z,98541.25
2023-03-29T16:06:34.673Z,98550.00
2023-03-29T16:11:56.473Z,98552.72
2023-03-29T16:17:18.220Z,98551.66
2023-03-29T16:22:39.924Z,98548.06
2023-03-29T16:28:01.594Z,98541.97
2023-03-29T16:33:23.326Z,98540.09
2023-03-29T16:38:45.110Z,98532.31
2023-03-29T16:44:07.339Z,98530.72
2023-03-29T16:49:29.079Z,98521.09
2023-03-29T16:54:50.772Z,98516.66
2023-03-29T17:00:15.779Z,98513.06
2023-03-29T17:05:41.267Z,98506.47
2023-03-29T17:11:03.820Z,98518.25
2023-03-29T17:16:28.405Z,98520.69
2023-03-29T17:21:51.252Z,98535.31
2023-03-29T17:27:13.005Z,98527.03
2023-03-29T17:32:35.678Z,98528.59
2023-03-29T17:38:01.316Z,98513.47
2023-03-29T17:43:23.237Z,98498.69
2023-03-29T17:48:46.226Z,98496.97
2023-03-29T17:54:08.148Z,98504.19
2023-03-29T17:59:29.885Z,98495.66
2023-03-29T18:04:51.723Z,98492.72
2023-03-29T18:10:13.448Z,98499.88
2023-03-29T18:15:35.360Z,98500.50
2023-03-29T18:20:57.067Z,98496.00
2023-03-29T18:26:19.048Z,98499.66
2023-03-29T18:31:40.990Z,98500.00
2023-03-29T18:37:02.936Z,98489.28
2023-03-29T18:42:24.975Z,98499.78
2023-03-29T18:47:46.850Z,98488.22
2023-03-29T18:53:10.845Z,98475.19
2023-03-29T18:58:32.643Z,98482.34
2023-03-29T19:03:54.420Z,98469.53
2023-03-29T19:09:16.219Z,98467.56
2023-03-29T19:14:38.002Z,98477.72
2023-03-29T19:19:59.821Z,98496.44
2023-03-29T19:25:21.612Z,98487.94
2023-03-29T19:30:43.540Z,98481.34
2023-03-29T19:36:05.812Z,98488.16
2023-03-29T19:41:28.246Z,98478.72
2023-03-29T19:46:51.202Z,98461.78
2023-03-29T19:52:14.074Z,98460.66
2023-03-29T19:57:35.876Z,98451.44
2023-03-29T20:02:57.694Z,98442.41
2023-03-29T20:08:19.812Z,98438.84
2023-03-29T20:13:42.897Z,98417.44
2023-03-29T20:19:06.907Z,98417.84
2023-03-29T20:24:29.056Z,98407.78
2023-03-29T20:29:50.837Z,98397.16
2023-03-29T20:35:12.660Z,98396.00
2023-03-29T20:40:34.554Z,98398.31
2023-03-29T20:45:56.298Z,98388.78
2023-03-29T20:51:18.096Z,98378.53
2023-03-29T20:56:42.244Z,98378.22
2023-03-29T21:02:04.518Z,98372.03
2023-03-29T21:07:26.488Z,98360.22
2023-03-29T21:12:48.422Z,98361.34
2023-03-29T21:18:10.154Z,98355.06
2023-03-29T21:23:32.054Z,98344.66
2023-03-29T21:28:53.881Z,98336.47
2023-03-29T21:34:15.790Z,98337.22
2023-03-29T21:39:37.496Z,98320.31
2023-03-29T21:44:59.208Z,98311.78
2023-03-29T21:50:20.955Z,98313.84
2023-03-29T21:55:42.656Z,98294.09
2023-03-29T22:01:07.144Z,98284.81
2023-03-29T22:06:29.018Z,98291.41
2023-03-29T22:11:51.764Z,98292.31
2023-03-29T22:17:13.454Z,98284.81
2023-03-29T22:22:35.185Z,98282.44
2023-03-29T22:27:56.878Z,98271.94
2023-03-29T22:33:18.547Z,98276.66
2023-03-29T22:38:40.442Z,98280.72
2023-03-29T22:44:02.247Z,98269.75
2023-03-29T22:49:24.053Z,98267.63
2023-03-29T22:54:45.728Z,98267.41
2023-03-29T23:00:09.147Z,98272.66
2023-03-29T23:05:31.153Z,98269.56
2023-03-29T23:10:52.998Z,98265.03
2023-03-29T23:16:15.426Z,98265.63
2023-03-29T23:21:37.216Z,98261.81
2023-03-29T23:26:59.210Z,98252.84
2023-03-29T23:32:21.049Z,98263.13
2023-03-29T23:37:43.342Z,98267.91
2023-03-29T23:43:05.094Z,98259.66
2023-03-29T23:48:27.153Z,98275.22
2023-03-29T23:53:49.498Z,98272.34
2023-03-29T23:59:11.222Z,98263.50
